sensor_id;sensor_type;location;lat;lon;timestamp;P1;durP1;ratioP1;P2;durP2;ratioP2
6207;SDS011;3137;51.550;7.060;2023-06-01T00:02:10;7.17;;;5.43;;
6207;SDS011;3137;51.550;7.060;2023-06-01T00:04:38;11.47;;;5.80;;
6207;SDS011;3137;51.550;7.060;2023-06-01T00:07:08;12.50;;;5.90;;
6207;SDS011;3137;51.550;7.060;2023-06-01T00:09:36;6.73;;;5.97;;
6207;SDS011;3137;51.550;7.060;2023-06-01T00:12:03;7.03;;;6.50;;
6207;SDS011;3137;51.550;7.060;2023-06-01T00:14:30;6.10;;;5.53;;
6207;SDS011;3137;51.550;7.060;2023-06-01T00:16:56;6.13;;;5.67;;
6207;SDS011;3137;51.550;7.060;2023-06-01T00:19:23;5.70;;;5.60;;
6207;SDS011;3137;51.550;7.060;2023-06-01T00:21:52;6.13;;;6.03;;
6207;SDS011;3137;51.550;7.060;2023-06-01T00:24:20;6.40;;;6.10;;
6207;SDS011;3137;51.550;7.060;2023-06-01T00:26:47;6.93;;;6.53;;
6207;SDS011;3137;51.550;7.060;2023-06-01T00:29:13;8.23;;;7.50;;
6207;SDS011;3137;51.550;7.060;2023-06-01T00:31:40;6.33;;;6.03;;
6207;SDS011;3137;51.550;7.060;2023-06-01T00:34:06;7.27;;;6.80;;
6207;SDS011;3137;51.550;7.060;2023-06-01T00:36:33;6.30;;;5.93;;
6207;SDS011;3137;51.550;7.060;2023-06-01T00:39:00;6.53;;;6.20;;
6207;SDS011;3137;51.550;7.060;2023-06-01T00:41:30;6.50;;;6.20;;
6207;SDS011;3137;51.550;7.060;2023-06-01T00:43:57;6.47;;;6.27;;
6207;SDS011;3137;51.550;7.060;2023-06-01T00:46:23;8.60;;;7.00;;
6207;SDS011;3137;51.550;7.060;2023-06-01T00:48:51;6.70;;;6.30;;
6207;SDS011;3137;51.550;7.060;2023-06-01T00:51:18;7.27;;;6.80;;
6207;SDS011;3137;51.550;7.060;2023-06-01T00:53:45;7.03;;;6.47;;
6207;SDS011;3137;51.550;7.060;2023-06-01T00:56:11;7.57;;;7.10;;
6207;SDS011;3137;51.550;7.060;2023-06-01T00:58:41;7.17;;;6.57;;
6207;SDS011;3137;51.550;7.060;2023-06-01T01:01:08;7.37;;;6.83;;
6207;SDS011;3137;51.550;7.060;2023-06-01T01:03:46;6.80;;;6.70;;
6207;SDS011;3137;51.550;7.060;2023-06-01T01:06:26;12.83;;;7.03;;
6207;SDS011;3137;51.550;7.060;2023-06-01T01:12:09;6.97;;;6.60;;
6207;SDS011;3137;51.550;7.060;2023-06-01T01:15:01;7.23;;;6.80;;
6207;SDS011;3137;51.550;7.060;2023-06-01T01:17:39;8.13;;;7.40;;
6207;SDS011;3137;51.550;7.060;2023-06-01T01:20:10;6.57;;;6.30;;
6207;SDS011;3137;51.550;7.060;2023-06-01T01:22:55;9.83;;;6.67;;
6207;SDS011;3137;51.550;7.060;2023-06-01T01:25:35;8.93;;;7.13;;
6207;SDS011;3137;51.550;7.060;2023-06-01T01:31:15;6.80;;;6.43;;
6207;SDS011;3137;51.550;7.060;2023-06-01T01:33:46;8.27;;;7.50;;
6207;SDS011;3137;51.550;7.060;2023-06-01T01:36:15;8.20;;;7.57;;
6207;SDS011;3137;51.550;7.060;2023-06-01T01:38:42;7.60;;;7.17;;
6207;SDS011;3137;51.550;7.060;2023-06-01T01:41:08;8.77;;;7.97;;
6207;SDS011;3137;51.550;7.060;2023-06-01T01:43:36;8.63;;;7.87;;
6207;SDS011;3137;51.550;7.060;2023-06-01T01:46:11;7.17;;;6.80;;
6207;SDS011;3137;51.550;7.060;2023-06-01T01:51:46;8.53;;;8.13;;
6207;SDS011;3137;51.550;7.060;2023-06-01T01:54:20;12.57;;;8.50;;
6207;SDS011;3137;51.550;7.060;2023-06-01T01:56:47;8.23;;;7.63;;
6207;SDS011;3137;51.550;7.060;2023-06-01T01:59:16;9.17;;;8.47;;
6207;SDS011;3137;51.550;7.060;2023-06-01T02:01:44;7.40;;;7.17;;
6207;SDS011;3137;51.550;7.060;2023-06-01T02:04:12;11.27;;;8.33;;
6207;SDS011;3137;51.550;7.060;2023-06-01T02:06:38;9.33;;;8.40;;
6207;SDS011;3137;51.550;7.060;2023-06-01T02:09:05;8.47;;;7.77;;
6207;SDS011;3137;51.550;7.060;2023-06-01T02:11:36;8.63;;;8.07;;
6207;SDS011;3137;51.550;7.060;2023-06-01T02:14:03;8.33;;;7.93;;
6207;SDS011;3137;51.550;7.060;2023-06-01T02:16:30;8.50;;;7.73;;
6207;SDS011;3137;51.550;7.060;2023-06-01T02:18:57;8.23;;;7.80;;
6207;SDS011;3137;51.550;7.060;2023-06-01T02:21:26;8.60;;;7.97;;
6207;SDS011;3137;51.550;7.060;2023-06-01T02:23:57;9.53;;;8.70;;
6207;SDS011;3137;51.550;7.060;2023-06-01T02:26:30;9.53;;;8.40;;
6207;SDS011;3137;51.550;7.060;2023-06-01T02:28:57;10.03;;;8.90;;
6207;SDS011;3137;51.550;7.060;2023-06-01T02:31:24;10.40;;;9.40;;
6207;SDS011;3137;51.550;7.060;2023-06-01T02:33:51;19.63;;;9.40;;
6207;SDS011;3137;51.550;7.060;2023-06-01T02:36:17;11.03;;;9.93;;
6207;SDS011;3137;51.550;7.060;2023-06-01T02:38:44;10.10;;;9.13;;
6207;SDS011;3137;51.550;7.060;2023-06-01T02:41:11;10.33;;;9.53;;
6207;SDS011;3137;51.550;7.060;2023-06-01T02:43:39;11.90;;;10.77;;
6207;SDS011;3137;51.550;7.060;2023-06-01T02:46:05;10.33;;;9.60;;
6207;SDS011;3137;51.550;7.060;2023-06-01T02:48:36;11.73;;;10.83;;
6207;SDS011;3137;51.550;7.060;2023-06-01T02:51:03;13.13;;;11.10;;
6207;SDS011;3137;51.550;7.060;2023-06-01T02:53:30;12.00;;;10.43;;
6207;SDS011;3137;51.550;7.060;2023-06-01T02:55:57;12.40;;;11.17;;
6207;SDS011;3137;51.550;7.060;2023-06-01T02:58:37;11.80;;;10.83;;
6207;SDS011;3137;51.550;7.060;2023-06-01T03:01:16;12.60;;;11.47;;
6207;SDS011;3137;51.550;7.060;2023-06-01T03:03:43;13.00;;;11.70;;
6207;SDS011;3137;51.550;7.060;2023-06-01T03:06:11;15.73;;;11.23;;
6207;SDS011;3137;51.550;7.060;2023-06-01T03:08:59;13.07;;;11.77;;
6207;SDS011;3137;51.550;7.060;2023-06-01T03:11:44;18.90;;;12.47;;
6207;SDS011;3137;51.550;7.060;2023-06-01T03:14:11;11.40;;;10.67;;
6207;SDS011;3137;51.550;7.060;2023-06-01T03:16:38;14.50;;;13.20;;
6207;SDS011;3137;51.550;7.060;2023-06-01T03:19:12;14.43;;;11.80;;
6207;SDS011;3137;51.550;7.060;2023-06-01T03:21:40;12.57;;;10.93;;
6207;SDS011;3137;51.550;7.060;2023-06-01T03:24:07;22.83;;;12.07;;
6207;SDS011;3137;51.550;7.060;2023-06-01T03:26:33;15.17;;;13.57;;
6207;SDS011;3137;51.550;7.060;2023-06-01T03:29:00;21.23;;;13.90;;
6207;SDS011;3137;51.550;7.060;2023-06-01T03:31:28;17.00;;;12.70;;
6207;SDS011;3137;51.550;7.060;2023-06-01T03:33:56;12.87;;;11.77;;
6207;SDS011;3137;51.550;7.060;2023-06-01T03:36:23;13.63;;;12.20;;
6207;SDS011;3137;51.550;7.060;2023-06-01T03:38:49;19.30;;;12.67;;
6207;SDS011;3137;51.550;7.060;2023-06-01T03:41:18;19.93;;;12.47;;
6207;SDS011;3137;51.550;7.060;2023-06-01T03:43:44;22.43;;;13.57;;
6207;SDS011;3137;51.550;7.060;2023-06-01T03:46:11;17.77;;;13.80;;
6207;SDS011;3137;51.550;7.060;2023-06-01T03:48:38;14.50;;;12.87;;
6207;SDS011;3137;51.550;7.060;2023-06-01T03:51:04;19.90;;;14.20;;
6207;SDS011;3137;51.550;7.060;2023-06-01T03:53:31;20.43;;;13.30;;
6207;SDS011;3137;51.550;7.060;2023-06-01T03:55:58;13.17;;;11.87;;
6207;SDS011;3137;51.550;7.060;2023-06-01T03:58:29;13.43;;;11.80;;
6207;SDS011;3137;51.550;7.060;2023-06-01T04:00:56;12.77;;;11.63;;
6207;SDS011;3137;51.550;7.060;2023-06-01T04:03:24;14.93;;;11.97;;
6207;SDS011;3137;51.550;7.060;2023-06-01T04:05:52;14.47;;;11.50;;
6207;SDS011;3137;51.550;7.060;2023-06-01T04:08:25;14.50;;;11.23;;
6207;SDS011;3137;51.550;7.060;2023-06-01T04:10:52;13.90;;;11.17;;
6207;SDS011;3137;51.550;7.060;2023-06-01T04:13:20;17.30;;;12.70;;
6207;SDS011;3137;51.550;7.060;2023-06-01T04:15:47;12.40;;;11.17;;
6207;SDS011;3137;51.550;7.060;2023-06-01T04:18:17;12.93;;;11.63;;
6207;SDS011;3137;51.550;7.060;2023-06-01T04:21:02;13.40;;;11.93;;
6207;SDS011;3137;51.550;7.060;2023-06-01T04:23:29;12.47;;;11.27;;
6207;SDS011;3137;51.550;7.060;2023-06-01T04:25:57;10.90;;;9.93;;
6207;SDS011;3137;51.550;7.060;2023-06-01T04:28:27;11.47;;;10.63;;
6207;SDS011;3137;51.550;7.060;2023-06-01T04:30:56;12.03;;;10.87;;
6207;SDS011;3137;51.550;7.060;2023-06-01T04:33:22;11.33;;;10.43;;
6207;SDS011;3137;51.550;7.060;2023-06-01T04:35:51;11.07;;;10.17;;
6207;SDS011;3137;51.550;7.060;2023-06-01T04:38:25;12.13;;;10.90;;
6207;SDS011;3137;51.550;7.060;2023-06-01T04:40:51;11.43;;;10.47;;
6207;SDS011;3137;51.550;7.060;2023-06-01T04:43:19;11.63;;;10.57;;
6207;SDS011;3137;51.550;7.060;2023-06-01T04:45:47;13.30;;;12.07;;
6207;SDS011;3137;51.550;7.060;2023-06-01T04:48:13;13.17;;;11.83;;
6207;SDS011;3137;51.550;7.060;2023-06-01T04:51:03;12.87;;;10.77;;
6207;SDS011;3137;51.550;7.060;2023-06-01T04:53:30;11.60;;;10.67;;
6207;SDS011;3137;51.550;7.060;2023-06-01T04:55:57;12.50;;;11.40;;
6207;SDS011;3137;51.550;7.060;2023-06-01T04:58:24;16.50;;;11.23;;
6207;SDS011;3137;51.550;7.060;2023-06-01T05:00:51;12.97;;;10.53;;
6207;SDS011;3137;51.550;7.060;2023-06-01T05:03:19;12.33;;;11.13;;
6207;SDS011;3137;51.550;7.060;2023-06-01T05:05:46;11.40;;;10.33;;
6207;SDS011;3137;51.550;7.060;2023-06-01T05:08:13;11.83;;;10.73;;
6207;SDS011;3137;51.550;7.060;2023-06-01T05:10:41;16.10;;;11.50;;
6207;SDS011;3137;51.550;7.060;2023-06-01T05:13:07;12.07;;;11.13;;
6207;SDS011;3137;51.550;7.060;2023-06-01T05:15:36;13.23;;;11.73;;
6207;SDS011;3137;51.550;7.060;2023-06-01T05:18:02;11.40;;;10.57;;
6207;SDS011;3137;51.550;7.060;2023-06-01T05:20:29;13.10;;;11.07;;
6207;SDS011;3137;51.550;7.060;2023-06-01T05:22:57;11.00;;;10.20;;
6207;SDS011;3137;51.550;7.060;2023-06-01T05:25:24;12.00;;;10.97;;
6207;SDS011;3137;51.550;7.060;2023-06-01T05:27:51;11.63;;;10.53;;
6207;SDS011;3137;51.550;7.060;2023-06-01T05:30:17;11.50;;;10.43;;
6207;SDS011;3137;51.550;7.060;2023-06-01T05:32:46;14.80;;;12.10;;
6207;SDS011;3137;51.550;7.060;2023-06-01T05:35:16;11.77;;;10.57;;
6207;SDS011;3137;51.550;7.060;2023-06-01T05:37:42;12.13;;;11.20;;
6207;SDS011;3137;51.550;7.060;2023-06-01T05:40:12;11.63;;;10.43;;
6207;SDS011;3137;51.550;7.060;2023-06-01T05:42:39;12.57;;;11.30;;
6207;SDS011;3137;51.550;7.060;2023-06-01T05:45:06;11.03;;;10.23;;
6207;SDS011;3137;51.550;7.060;2023-06-01T05:47:32;11.27;;;10.33;;
6207;SDS011;3137;51.550;7.060;2023-06-01T05:49:59;13.87;;;10.33;;
6207;SDS011;3137;51.550;7.060;2023-06-01T05:52:26;10.47;;;9.70;;
6207;SDS011;3137;51.550;7.060;2023-06-01T05:54:53;10.60;;;9.90;;
6207;SDS011;3137;51.550;7.060;2023-06-01T05:57:20;14.70;;;10.63;;
6207;SDS011;3137;51.550;7.060;2023-06-01T05:59:47;10.50;;;9.57;;
6207;SDS011;3137;51.550;7.060;2023-06-01T06:02:14;13.67;;;11.07;;
6207;SDS011;3137;51.550;7.060;2023-06-01T06:04:40;10.97;;;10.00;;
6207;SDS011;3137;51.550;7.060;2023-06-01T06:07:07;9.70;;;9.10;;
6207;SDS011;3137;51.550;7.060;2023-06-01T06:09:33;11.23;;;10.20;;
6207;SDS011;3137;51.550;7.060;2023-06-01T06:12:00;12.07;;;10.47;;
6207;SDS011;3137;51.550;7.060;2023-06-01T06:14:27;11.77;;;10.30;;
6207;SDS011;3137;51.550;7.060;2023-06-01T06:16:54;11.03;;;10.30;;
6207;SDS011;3137;51.550;7.060;2023-06-01T06:19:21;11.93;;;9.97;;
6207;SDS011;3137;51.550;7.060;2023-06-01T06:21:47;10.80;;;9.77;;
6207;SDS011;3137;51.550;7.060;2023-06-01T06:24:14;9.77;;;9.23;;
6207;SDS011;3137;51.550;7.060;2023-06-01T06:26:41;15.63;;;10.40;;
6207;SDS011;3137;51.550;7.060;2023-06-01T06:29:07;10.80;;;9.80;;
6207;SDS011;3137;51.550;7.060;2023-06-01T06:31:34;10.47;;;9.73;;
6207;SDS011;3137;51.550;7.060;2023-06-01T06:34:00;13.07;;;9.87;;
6207;SDS011;3137;51.550;7.060;2023-06-01T06:36:27;22.97;;;11.50;;
6207;SDS011;3137;51.550;7.060;2023-06-01T06:38:54;15.40;;;11.60;;
6207;SDS011;3137;51.550;7.060;2023-06-01T06:41:20;12.67;;;11.40;;
6207;SDS011;3137;51.550;7.060;2023-06-01T06:43:47;11.90;;;10.77;;
6207;SDS011;3137;51.550;7.060;2023-06-01T06:46:13;11.93;;;10.77;;
6207;SDS011;3137;51.550;7.060;2023-06-01T06:48:40;10.90;;;10.20;;
6207;SDS011;3137;51.550;7.060;2023-06-01T06:51:06;11.17;;;10.10;;
6207;SDS011;3137;51.550;7.060;2023-06-01T06:53:33;11.93;;;10.90;;
6207;SDS011;3137;51.550;7.060;2023-06-01T06:55:59;11.77;;;10.77;;
6207;SDS011;3137;51.550;7.060;2023-06-01T06:58:26;10.63;;;9.93;;
6207;SDS011;3137;51.550;7.060;2023-06-01T07:00:53;11.60;;;10.53;;
6207;SDS011;3137;51.550;7.060;2023-06-01T07:03:19;11.40;;;10.43;;
6207;SDS011;3137;51.550;7.060;2023-06-01T07:05:46;13.70;;;12.27;;
6207;SDS011;3137;51.550;7.060;2023-06-01T07:08:13;13.80;;;12.50;;
6207;SDS011;3137;51.550;7.060;2023-06-01T07:10:40;14.60;;;12.57;;
6207;SDS011;3137;51.550;7.060;2023-06-01T07:13:07;14.93;;;13.43;;
6207;SDS011;3137;51.550;7.060;2023-06-01T07:15:33;13.50;;;12.33;;
6207;SDS011;3137;51.550;7.060;2023-06-01T07:18:00;13.77;;;12.43;;
6207;SDS011;3137;51.550;7.060;2023-06-01T07:20:26;13.30;;;11.97;;
6207;SDS011;3137;51.550;7.060;2023-06-01T07:22:53;13.07;;;11.80;;
6207;SDS011;3137;51.550;7.060;2023-06-01T07:25:19;23.07;;;14.40;;
6207;SDS011;3137;51.550;7.060;2023-06-01T07:27:46;20.30;;;13.93;;
6207;SDS011;3137;51.550;7.060;2023-06-01T07:30:14;20.03;;;13.37;;
6207;SDS011;3137;51.550;7.060;2023-06-01T07:32:41;14.57;;;12.83;;
6207;SDS011;3137;51.550;7.060;2023-06-01T07:35:08;16.87;;;14.13;;
6207;SDS011;3137;51.550;7.060;2023-06-01T07:37:35;19.47;;;14.77;;
6207;SDS011;3137;51.550;7.060;2023-06-01T07:40:02;18.37;;;16.50;;
6207;SDS011;3137;51.550;7.060;2023-06-01T07:42:33;19.83;;;16.87;;
6207;SDS011;3137;51.550;7.060;2023-06-01T07:45:00;16.93;;;14.73;;
6207;SDS011;3137;51.550;7.060;2023-06-01T07:47:26;15.23;;;13.80;;
6207;SDS011;3137;51.550;7.060;2023-06-01T07:49:57;13.97;;;12.83;;
6207;SDS011;3137;51.550;7.060;2023-06-01T07:52:24;17.37;;;14.63;;
6207;SDS011;3137;51.550;7.060;2023-06-01T07:54:51;23.53;;;16.03;;
6207;SDS011;3137;51.550;7.060;2023-06-01T07:57:17;18.10;;;14.67;;
6207;SDS011;3137;51.550;7.060;2023-06-01T07:59:44;16.27;;;14.53;;
6207;SDS011;3137;51.550;7.060;2023-06-01T08:02:11;25.90;;;16.20;;
6207;SDS011;3137;51.550;7.060;2023-06-01T08:04:38;17.70;;;15.43;;
6207;SDS011;3137;51.550;7.060;2023-06-01T08:07:05;22.90;;;15.90;;
6207;SDS011;3137;51.550;7.060;2023-06-01T08:09:33;20.47;;;16.13;;
6207;SDS011;3137;51.550;7.060;2023-06-01T08:12:01;27.23;;;19.30;;
6207;SDS011;3137;51.550;7.060;2023-06-01T08:14:27;21.60;;;17.53;;
6207;SDS011;3137;51.550;7.060;2023-06-01T08:16:54;21.23;;;18.27;;
6207;SDS011;3137;51.550;7.060;2023-06-01T08:19:22;23.33;;;16.97;;
6207;SDS011;3137;51.550;7.060;2023-06-01T08:21:48;25.03;;;16.57;;
6207;SDS011;3137;51.550;7.060;2023-06-01T08:24:15;16.57;;;15.07;;
6207;SDS011;3137;51.550;7.060;2023-06-01T08:26:42;16.63;;;15.07;;
6207;SDS011;3137;51.550;7.060;2023-06-01T08:29:09;23.43;;;16.27;;
6207;SDS011;3137;51.550;7.060;2023-06-01T08:31:36;25.57;;;17.77;;
6207;SDS011;3137;51.550;7.060;2023-06-01T08:34:03;24.83;;;18.37;;
6207;SDS011;3137;51.550;7.060;2023-06-01T08:36:30;22.67;;;17.77;;
6207;SDS011;3137;51.550;7.060;2023-06-01T08:38:57;22.07;;;19.63;;
6207;SDS011;3137;51.550;7.060;2023-06-01T08:41:24;24.17;;;19.63;;
6207;SDS011;3137;51.550;7.060;2023-06-01T08:44:07;26.37;;;19.03;;
6207;SDS011;3137;51.550;7.060;2023-06-01T08:46:34;30.27;;;19.07;;
6207;SDS011;3137;51.550;7.060;2023-06-01T08:49:01;21.20;;;19.00;;
6207;SDS011;3137;51.550;7.060;2023-06-01T08:51:28;28.33;;;19.53;;
6207;SDS011;3137;51.550;7.060;2023-06-01T08:53:59;20.40;;;17.43;;
6207;SDS011;3137;51.550;7.060;2023-06-01T08:56:31;28.17;;;17.77;;
6207;SDS011;3137;51.550;7.060;2023-06-01T08:58:57;18.63;;;16.67;;
6207;SDS011;3137;51.550;7.060;2023-06-01T09:01:25;18.70;;;16.87;;
6207;SDS011;3137;51.550;7.060;2023-06-01T09:03:52;26.90;;;15.93;;
6207;SDS011;3137;51.550;7.060;2023-06-01T09:06:19;17.90;;;16.10;;
6207;SDS011;3137;51.550;7.060;2023-06-01T09:08:47;18.20;;;16.10;;
6207;SDS011;3137;51.550;7.060;2023-06-01T09:11:14;27.63;;;16.23;;
6207;SDS011;3137;51.550;7.060;2023-06-01T09:13:40;18.33;;;15.70;;
6207;SDS011;3137;51.550;7.060;2023-06-01T09:16:07;18.53;;;16.57;;
6207;SDS011;3137;51.550;7.060;2023-06-01T09:18:33;18.27;;;15.83;;
6207;SDS011;3137;51.550;7.060;2023-06-01T09:21:10;19.40;;;15.30;;
6207;SDS011;3137;51.550;7.060;2023-06-01T09:23:38;20.63;;;15.57;;
6207;SDS011;3137;51.550;7.060;2023-06-01T09:34:03;15.37;;;13.93;;
6207;SDS011;3137;51.550;7.060;2023-06-01T09:36:30;15.20;;;13.47;;
6207;SDS011;3137;51.550;7.060;2023-06-01T09:39:03;14.00;;;12.63;;
6207;SDS011;3137;51.550;7.060;2023-06-01T09:44:11;18.90;;;13.90;;
6207;SDS011;3137;51.550;7.060;2023-06-01T09:46:45;15.00;;;13.40;;
6207;SDS011;3137;51.550;7.060;2023-06-01T09:49:30;15.60;;;12.77;;
6207;SDS011;3137;51.550;7.060;2023-06-01T09:54:30;12.67;;;11.37;;
6207;SDS011;3137;51.550;7.060;2023-06-01T09:57:02;12.20;;;10.27;;
6207;SDS011;3137;51.550;7.060;2023-06-01T09:59:41;11.90;;;10.87;;
6207;SDS011;3137;51.550;7.060;2023-06-01T10:04:53;16.03;;;12.17;;
6207;SDS011;3137;51.550;7.060;2023-06-01T10:07:22;12.57;;;11.47;;
6207;SDS011;3137;51.550;7.060;2023-06-01T10:09:50;13.10;;;11.80;;
6207;SDS011;3137;51.550;7.060;2023-06-01T10:12:19;11.90;;;11.03;;
6207;SDS011;3137;51.550;7.060;2023-06-01T10:14:48;13.00;;;11.80;;
6207;SDS011;3137;51.550;7.060;2023-06-01T10:17:15;11.87;;;10.93;;
6207;SDS011;3137;51.550;7.060;2023-06-01T10:19:46;12.40;;;10.70;;
6207;SDS011;3137;51.550;7.060;2023-06-01T10:22:13;13.13;;;10.77;;
6207;SDS011;3137;51.550;7.060;2023-06-01T10:24:40;16.03;;;10.93;;
6207;SDS011;3137;51.550;7.060;2023-06-01T10:30:10;11.00;;;10.30;;
6207;SDS011;3137;51.550;7.060;2023-06-01T10:35:07;11.67;;;10.00;;
6207;SDS011;3137;51.550;7.060;2023-06-01T10:37:34;13.17;;;10.73;;
6207;SDS011;3137;51.550;7.060;2023-06-01T10:40:18;15.17;;;11.90;;
6207;SDS011;3137;51.550;7.060;2023-06-01T10:42:49;11.97;;;10.80;;
6207;SDS011;3137;51.550;7.060;2023-06-01T10:45:35;10.40;;;9.73;;
6207;SDS011;3137;51.550;7.060;2023-06-01T10:48:07;11.47;;;10.50;;
6207;SDS011;3137;51.550;7.060;2023-06-01T10:50:39;11.50;;;10.53;;
6207;SDS011;3137;51.550;7.060;2023-06-01T10:53:23;11.77;;;10.63;;
6207;SDS011;3137;51.550;7.060;2023-06-01T10:56:17;12.53;;;10.60;;
6207;SDS011;3137;51.550;7.060;2023-06-01T10:58:47;10.37;;;9.30;;
6207;SDS011;3137;51.550;7.060;2023-06-01T11:01:44;17.83;;;10.77;;
6207;SDS011;3137;51.550;7.060;2023-06-01T11:04:12;11.10;;;10.00;;
6207;SDS011;3137;51.550;7.060;2023-06-01T11:06:40;15.20;;;10.90;;
6207;SDS011;3137;51.550;7.060;2023-06-01T11:09:10;12.03;;;9.70;;
6207;SDS011;3137;51.550;7.060;2023-06-01T11:14:22;11.20;;;9.90;;
6207;SDS011;3137;51.550;7.060;2023-06-01T11:16:53;12.20;;;11.17;;
6207;SDS011;3137;51.550;7.060;2023-06-01T11:19:23;11.20;;;9.87;;
6207;SDS011;3137;51.550;7.060;2023-06-01T11:21:54;11.87;;;10.60;;
6207;SDS011;3137;51.550;7.060;2023-06-01T11:24:31;10.97;;;9.90;;
6207;SDS011;3137;51.550;7.060;2023-06-01T11:27:00;11.57;;;9.97;;
6207;SDS011;3137;51.550;7.060;2023-06-01T11:29:32;10.87;;;9.90;;
6207;SDS011;3137;51.550;7.060;2023-06-01T11:32:00;12.63;;;9.90;;
6207;SDS011;3137;51.550;7.060;2023-06-01T11:34:35;9.50;;;8.83;;
6207;SDS011;3137;51.550;7.060;2023-06-01T11:37:12;10.40;;;9.50;;
6207;SDS011;3137;51.550;7.060;2023-06-01T11:39:40;10.33;;;9.53;;
6207;SDS011;3137;51.550;7.060;2023-06-01T11:42:11;10.37;;;9.47;;
6207;SDS011;3137;51.550;7.060;2023-06-01T11:44:46;9.80;;;8.97;;
6207;SDS011;3137;51.550;7.060;2023-06-01T11:47:27;9.20;;;8.57;;
6207;SDS011;3137;51.550;7.060;2023-06-01T11:49:54;15.50;;;9.20;;
6207;SDS011;3137;51.550;7.060;2023-06-01T11:52:21;13.70;;;9.57;;
6207;SDS011;3137;51.550;7.060;2023-06-01T11:54:48;10.27;;;9.33;;
6207;SDS011;3137;51.550;7.060;2023-06-01T11:57:15;11.00;;;9.40;;
6207;SDS011;3137;51.550;7.060;2023-06-01T11:59:43;11.23;;;9.27;;
6207;SDS011;3137;51.550;7.060;2023-06-01T12:02:18;13.50;;;9.60;;
6207;SDS011;3137;51.550;7.060;2023-06-01T12:05:03;9.10;;;8.50;;
6207;SDS011;3137;51.550;7.060;2023-06-01T12:10:12;8.67;;;7.97;;
6207;SDS011;3137;51.550;7.060;2023-06-01T12:12:42;10.77;;;7.83;;
6207;SDS011;3137;51.550;7.060;2023-06-01T12:15:10;9.93;;;9.40;;
6207;SDS011;3137;51.550;7.060;2023-06-01T12:20:27;11.30;;;9.87;;
6207;SDS011;3137;51.550;7.060;2023-06-01T12:23:00;9.20;;;8.60;;
6207;SDS011;3137;51.550;7.060;2023-06-01T12:25:32;12.87;;;10.33;;
6207;SDS011;3137;51.550;7.060;2023-06-01T12:27:59;11.30;;;10.50;;
6207;SDS011;3137;51.550;7.060;2023-06-01T12:30:29;10.20;;;9.57;;
6207;SDS011;3137;51.550;7.060;2023-06-01T12:32:56;10.57;;;9.73;;
6207;SDS011;3137;51.550;7.060;2023-06-01T12:35:22;10.97;;;10.27;;
6207;SDS011;3137;51.550;7.060;2023-06-01T12:38:05;11.10;;;10.10;;
6207;SDS011;3137;51.550;7.060;2023-06-01T12:40:38;12.67;;;11.67;;
6207;SDS011;3137;51.550;7.060;2023-06-01T12:43:06;11.40;;;10.60;;
6207;SDS011;3137;51.550;7.060;2023-06-01T12:45:44;11.47;;;10.57;;
6207;SDS011;3137;51.550;7.060;2023-06-01T12:48:29;12.63;;;10.70;;
6207;SDS011;3137;51.550;7.060;2023-06-01T12:50:56;10.90;;;9.97;;
6207;SDS011;3137;51.550;7.060;2023-06-01T12:53:23;9.47;;;8.83;;
6207;SDS011;3137;51.550;7.060;2023-06-01T12:55:50;9.37;;;8.97;;
6207;SDS011;3137;51.550;7.060;2023-06-01T12:58:17;11.77;;;10.37;;
6207;SDS011;3137;51.550;7.060;2023-06-01T13:00:43;10.60;;;9.73;;
6207;SDS011;3137;51.550;7.060;2023-06-01T13:03:12;12.90;;;9.77;;
6207;SDS011;3137;51.550;7.060;2023-06-01T13:05:41;9.23;;;8.63;;
6207;SDS011;3137;51.550;7.060;2023-06-01T13:08:15;11.13;;;10.00;;
6207;SDS011;3137;51.550;7.060;2023-06-01T13:10:43;10.23;;;9.27;;
6207;SDS011;3137;51.550;7.060;2023-06-01T13:13:09;9.30;;;8.57;;
6207;SDS011;3137;51.550;7.060;2023-06-01T13:15:41;9.63;;;8.70;;
6207;SDS011;3137;51.550;7.060;2023-06-01T13:18:13;8.13;;;7.77;;
6207;SDS011;3137;51.550;7.060;2023-06-01T13:20:40;8.40;;;7.80;;
6207;SDS011;3137;51.550;7.060;2023-06-01T13:23:06;8.20;;;7.90;;
6207;SDS011;3137;51.550;7.060;2023-06-01T13:25:33;8.03;;;7.77;;
6207;SDS011;3137;51.550;7.060;2023-06-01T13:28:00;16.13;;;8.80;;
6207;SDS011;3137;51.550;7.060;2023-06-01T13:30:27;8.80;;;8.23;;
6207;SDS011;3137;51.550;7.060;2023-06-01T13:32:59;8.60;;;8.03;;
6207;SDS011;3137;51.550;7.060;2023-06-01T13:35:26;13.97;;;9.17;;
6207;SDS011;3137;51.550;7.060;2023-06-01T13:37:53;9.57;;;9.00;;
6207;SDS011;3137;51.550;7.060;2023-06-01T13:40:19;8.80;;;8.17;;
6207;SDS011;3137;51.550;7.060;2023-06-01T13:42:49;8.80;;;8.40;;
6207;SDS011;3137;51.550;7.060;2023-06-01T13:45:17;9.30;;;8.43;;
6207;SDS011;3137;51.550;7.060;2023-06-01T13:47:44;7.73;;;7.30;;
6207;SDS011;3137;51.550;7.060;2023-06-01T13:50:12;9.70;;;8.90;;
6207;SDS011;3137;51.550;7.060;2023-06-01T13:52:39;9.70;;;9.10;;
6207;SDS011;3137;51.550;7.060;2023-06-01T13:55:07;9.30;;;8.70;;
6207;SDS011;3137;51.550;7.060;2023-06-01T13:57:35;8.97;;;8.03;;
6207;SDS011;3137;51.550;7.060;2023-06-01T14:00:03;8.97;;;8.27;;
6207;SDS011;3137;51.550;7.060;2023-06-01T14:02:31;9.23;;;8.53;;
6207;SDS011;3137;51.550;7.060;2023-06-01T14:04:58;8.10;;;7.70;;
6207;SDS011;3137;51.550;7.060;2023-06-01T14:07:33;9.63;;;7.33;;
6207;SDS011;3137;51.550;7.060;2023-06-01T14:10:00;7.83;;;7.53;;
6207;SDS011;3137;51.550;7.060;2023-06-01T14:12:27;7.80;;;7.27;;
6207;SDS011;3137;51.550;7.060;2023-06-01T14:14:53;10.13;;;7.93;;
6207;SDS011;3137;51.550;7.060;2023-06-01T14:17:22;8.50;;;7.93;;
6207;SDS011;3137;51.550;7.060;2023-06-01T14:19:50;7.43;;;6.67;;
6207;SDS011;3137;51.550;7.060;2023-06-01T14:22:18;8.43;;;7.70;;
6207;SDS011;3137;51.550;7.060;2023-06-01T14:24:45;8.37;;;7.73;;
6207;SDS011;3137;51.550;7.060;2023-06-01T14:27:11;8.53;;;8.13;;
6207;SDS011;3137;51.550;7.060;2023-06-01T14:29:37;8.80;;;8.30;;
6207;SDS011;3137;51.550;7.060;2023-06-01T14:32:04;8.90;;;8.27;;
6207;SDS011;3137;51.550;7.060;2023-06-01T14:34:31;9.57;;;7.20;;
6207;SDS011;3137;51.550;7.060;2023-06-01T14:36:57;9.20;;;8.53;;
6207;SDS011;3137;51.550;7.060;2023-06-01T14:39:24;8.10;;;7.70;;
6207;SDS011;3137;51.550;7.060;2023-06-01T14:41:51;7.27;;;7.03;;
6207;SDS011;3137;51.550;7.060;2023-06-01T14:44:17;7.97;;;7.57;;
6207;SDS011;3137;51.550;7.060;2023-06-01T14:46:44;7.60;;;7.07;;
6207;SDS011;3137;51.550;7.060;2023-06-01T14:49:10;8.57;;;7.77;;
6207;SDS011;3137;51.550;7.060;2023-06-01T14:51:37;8.80;;;8.03;;
6207;SDS011;3137;51.550;7.060;2023-06-01T14:54:03;7.97;;;7.23;;
6207;SDS011;3137;51.550;7.060;2023-06-01T14:56:30;13.43;;;7.20;;
6207;SDS011;3137;51.550;7.060;2023-06-01T14:58:57;8.77;;;7.23;;
6207;SDS011;3137;51.550;7.060;2023-06-01T15:01:23;7.67;;;7.47;;
6207;SDS011;3137;51.550;7.060;2023-06-01T15:03:50;8.40;;;7.57;;
6207;SDS011;3137;51.550;7.060;2023-06-01T15:06:17;6.57;;;6.27;;
6207;SDS011;3137;51.550;7.060;2023-06-01T15:08:43;6.87;;;6.47;;
6207;SDS011;3137;51.550;7.060;2023-06-01T15:11:10;6.67;;;6.37;;
6207;SDS011;3137;51.550;7.060;2023-06-01T15:13:40;9.90;;;7.70;;
6207;SDS011;3137;51.550;7.060;2023-06-01T15:16:08;6.70;;;6.40;;
6207;SDS011;3137;51.550;7.060;2023-06-01T15:18:34;6.30;;;5.90;;
6207;SDS011;3137;51.550;7.060;2023-06-01T15:21:01;6.47;;;6.07;;
6207;SDS011;3137;51.550;7.060;2023-06-01T15:23:28;6.17;;;6.00;;
6207;SDS011;3137;51.550;7.060;2023-06-01T15:25:54;6.40;;;6.20;;
6207;SDS011;3137;51.550;7.060;2023-06-01T15:28:21;6.77;;;6.37;;
6207;SDS011;3137;51.550;7.060;2023-06-01T15:30:49;7.67;;;7.23;;
6207;SDS011;3137;51.550;7.060;2023-06-01T15:33:16;7.30;;;6.83;;
6207;SDS011;3137;51.550;7.060;2023-06-01T15:35:43;6.37;;;5.97;;
6207;SDS011;3137;51.550;7.060;2023-06-01T15:38:09;6.90;;;6.47;;
6207;SDS011;3137;51.550;7.060;2023-06-01T15:40:36;6.73;;;6.63;;
6207;SDS011;3137;51.550;7.060;2023-06-01T15:43:03;7.07;;;6.70;;
6207;SDS011;3137;51.550;7.060;2023-06-01T15:45:29;17.23;;;7.20;;
6207;SDS011;3137;51.550;7.060;2023-06-01T15:47:56;6.87;;;5.93;;